createdAt,value
2019-04-04T00:00:16.353Z,1.00
2019-04-04T00:02:47.981Z,0.20
2019-04-04T00:05:19.944Z,0.53
2019-04-04T00:07:50.959Z,0.57
2019-04-04T00:10:21.951Z,1.57
2019-04-04T00:12:52.998Z,0.33
2019-04-04T00:15:25.622Z,0.60
2019-04-04T00:17:56.769Z,0.40
2019-04-04T00:20:29.872Z,1.35
2019-04-04T00:23:02.010Z,0.20
2019-04-04T00:25:33.197Z,0.40
2019-04-04T00:28:04.472Z,0.53
2019-04-04T00:30:35.499Z,0.57
2019-04-04T00:33:06.566Z,0.30
2019-04-04T00:35:37.547Z,0.40
2019-04-04T00:38:08.836Z,0.40
2019-04-04T00:40:40.110Z,0.43
2019-04-04T00:43:12.509Z,0.60
2019-04-04T00:45:43.515Z,0.73
2019-04-04T00:48:14.664Z,0.23
2019-04-04T00:50:45.708Z,0.82
2019-04-04T00:53:16.783Z,0.20
2019-04-04T00:55:48.103Z,0.70
2019-04-04T00:58:20.818Z,0.63
2019-04-04T01:00:52.968Z,0.67
2019-04-04T01:03:25.953Z,1.37
2019-04-04T01:05:57.040Z,0.40
2019-04-04T01:08:29.262Z,0.85
2019-04-04T01:11:00.299Z,0.68
2019-04-04T01:13:31.304Z,0.60
2019-04-04T01:16:02.926Z,0.90
2019-04-04T01:18:36.671Z,1.40
2019-04-04T01:21:07.251Z,1.07
2019-04-04T01:23:38.597Z,1.83
2019-04-04T01:26:09.667Z,0.80
2019-04-04T01:28:40.975Z,0.62
2019-04-04T01:31:14.630Z,0.72
2019-04-04T01:33:44.769Z,1.27
2019-04-04T01:36:15.771Z,0.73
2019-04-04T01:38:47.006Z,0.62
2019-04-04T01:41:18.139Z,2.27
2019-04-04T01:43:49.128Z,0.90
2019-04-04T01:46:20.188Z,1.30
2019-04-04T01:48:51.221Z,1.20
2019-04-04T01:51:23.161Z,3.27
2019-04-04T01:53:55.868Z,1.00
2019-04-04T01:56:26.846Z,1.37
2019-04-04T01:58:58.137Z,1.13
2019-04-04T02:01:29.132Z,1.77
2019-04-04T02:04:00.141Z,1.90
2019-04-04T02:06:31.200Z,1.07
2019-04-04T02:09:02.810Z,0.85
2019-04-04T02:11:37.248Z,1.23
2019-04-04T02:14:07.432Z,1.52
2019-04-04T02:16:38.818Z,1.10
2019-04-04T02:19:09.879Z,1.92
2019-04-04T02:21:41.286Z,1.02
2019-04-04T02:24:12.713Z,0.50
2019-04-04T02:26:44.255Z,0.77
2019-04-04T02:29:16.578Z,1.67
2019-04-04T02:31:53.545Z,4.33
2019-04-04T02:34:23.985Z,1.10
2019-04-04T02:36:56.080Z,4.48
2019-04-04T02:39:29.151Z,0.75
2019-04-04T02:42:00.534Z,1.20
2019-04-04T02:44:32.918Z,0.90
2019-04-04T02:47:04.362Z,1.42
2019-04-04T02:49:36.168Z,1.53
2019-04-04T02:52:07.139Z,1.67
2019-04-04T02:54:38.127Z,2.47
2019-04-04T02:57:09.686Z,1.37
2019-04-04T02:59:41.659Z,1.47
2019-04-04T03:02:13.028Z,2.12
2019-04-04T03:04:46.821Z,1.32
2019-04-04T03:07:17.025Z,2.17
2019-04-04T03:09:48.193Z,1.92
2019-04-04T03:12:19.354Z,1.13
2019-04-04T03:14:50.859Z,2.60
2019-04-04T03:17:22.722Z,1.20
2019-04-04T03:19:53.868Z,2.70
2019-04-04T03:22:27.603Z,1.83
2019-04-04T03:24:59.376Z,2.03
2019-04-04T03:27:31.036Z,1.17
2019-04-04T03:30:02.331Z,2.57
2019-04-04T03:32:33.539Z,1.57
2019-04-04T03:35:04.799Z,1.92
2019-04-04T03:37:40.536Z,2.57
2019-04-04T03:40:08.802Z,2.33
2019-04-04T03:42:44.040Z,1.63
2019-04-04T03:45:13.243Z,1.12
2019-04-04T03:47:45.504Z,2.55
2019-04-04T03:50:16.595Z,2.17
2019-04-04T03:52:48.526Z,2.63
2019-04-04T03:55:19.707Z,2.77
2019-04-04T03:57:51.829Z,3.20
2019-04-04T04:00:28.808Z,2.70
2019-04-04T04:03:00.462Z,3.80
2019-04-04T04:05:35.553Z,1.73
2019-04-04T04:08:05.209Z,3.30
2019-04-04T04:10:36.751Z,4.20
2019-04-04T04:13:09.259Z,4.07
2019-04-04T04:15:40.328Z,3.40
2019-04-04T04:18:11.286Z,3.67
2019-04-04T04:20:42.328Z,1.90
2019-04-04T04:23:13.908Z,4.73
2019-04-04T04:25:46.440Z,2.80
2019-04-04T04:28:19.847Z,1.40
2019-04-04T04:30:50.729Z,2.75
2019-04-04T04:33:21.803Z,3.53
2019-04-04T04:35:52.913Z,3.67
2019-04-04T04:38:26.727Z,3.67
2019-04-04T04:40:56.589Z,3.45
2019-04-04T04:43:32.168Z,2.87
2019-04-04T04:46:00.855Z,4.40
2019-04-04T04:48:32.072Z,5.30
2019-04-04T04:51:04.033Z,3.60
2019-04-04T04:53:35.086Z,3.37
2019-04-04T04:56:06.130Z,2.30
2019-04-04T04:58:37.139Z,3.70
2019-04-04T05:01:08.195Z,3.07
2019-04-04T05:03:39.216Z,3.90
2019-04-04T05:06:10.217Z,5.00
2019-04-04T05:08:41.623Z,3.22
2019-04-04T05:11:14.561Z,2.80
2019-04-04T05:13:46.098Z,2.20
2019-04-04T05:16:17.161Z,3.50
2019-04-04T05:18:48.311Z,5.33
2019-04-04T05:21:25.465Z,4.03
2019-04-04T05:23:52.088Z,3.53
2019-04-04T05:26:23.217Z,4.33
2019-04-04T05:28:56.777Z,2.77
2019-04-04T05:31:26.975Z,2.17
2019-04-04T05:33:59.053Z,4.35
2019-04-04T05:36:30.676Z,3.40
2019-04-04T05:39:01.829Z,3.33
2019-04-04T05:41:33.784Z,3.93
2019-04-04T05:44:05.059Z,5.00
2019-04-04T05:46:37.255Z,1.50
2019-04-04T05:49:08.484Z,4.17
2019-04-04T05:51:39.641Z,4.10
2019-04-04T05:54:10.956Z,6.23
2019-04-04T05:56:44.521Z,3.33
2019-04-04T05:59:16.866Z,2.02
2019-04-04T06:01:47.918Z,3.77
2019-04-04T06:04:19.566Z,3.03
2019-04-04T06:06:51.222Z,2.77
2019-04-04T06:09:22.233Z,4.07
2019-04-04T06:11:53.862Z,1.83
2019-04-04T06:14:24.972Z,2.17
2019-04-04T06:16:56.139Z,2.50
2019-04-04T06:19:27.134Z,4.87
2019-04-04T06:21:58.214Z,3.35
2019-04-04T06:24:29.480Z,6.08
2019-04-04T06:27:00.465Z,2.53
2019-04-04T06:29:31.439Z,3.47
2019-04-04T06:32:02.804Z,4.53
2019-04-04T06:34:33.789Z,6.03
2019-04-04T06:37:04.934Z,2.67
2019-04-04T06:39:36.820Z,2.83
2019-04-04T06:42:07.841Z,3.87
2019-04-04T06:44:38.885Z,2.07
2019-04-04T06:47:09.949Z,2.53
2019-04-04T06:49:41.000Z,2.53
2019-04-04T06:52:12.025Z,5.27
2019-04-04T06:54:43.053Z,2.40
2019-04-04T06:57:14.197Z,3.60
2019-04-04T06:59:46.349Z,4.66
2019-04-04T07:02:17.408Z,2.20
2019-04-04T07:04:48.436Z,2.52
2019-04-04T07:07:19.562Z,3.40
2019-04-04T07:09:51.027Z,3.85
2019-04-04T07:12:28.100Z,7.37
2019-04-04T07:14:55.279Z,2.10
2019-04-04T07:17:26.692Z,3.17
2019-04-04T07:19:57.684Z,1.97
2019-04-04T07:22:28.691Z,3.27
2019-04-04T07:25:01.309Z,6.70
2019-04-04T07:27:32.436Z,5.23
2019-04-04T07:30:03.976Z,3.30
2019-04-04T07:32:40.707Z,6.40
2019-04-04T07:35:10.360Z,4.53
2019-04-04T07:37:41.438Z,3.90
2019-04-04T07:40:13.054Z,4.07
2019-04-04T07:42:47.023Z,3.83
2019-04-04T07:45:16.868Z,5.70
2019-04-04T07:47:47.851Z,4.15
2019-04-04T07:50:18.837Z,4.67
2019-04-04T07:52:49.972Z,5.60
2019-04-04T07:55:20.946Z,3.42
2019-04-04T07:57:51.924Z,3.80
2019-04-04T08:00:23.335Z,5.60
2019-04-04T08:02:54.343Z,3.90
2019-04-04T08:05:25.639Z,5.80
2019-04-04T08:07:56.641Z,5.73
2019-04-04T08:10:27.616Z,5.30
2019-04-04T08:12:58.622Z,4.90
2019-04-04T08:15:29.788Z,3.13
2019-04-04T08:18:00.921Z,6.50
2019-04-04T08:20:32.174Z,6.73
2019-04-04T08:23:03.216Z,5.40
2019-04-04T08:25:34.606Z,5.27
2019-04-04T08:28:05.675Z,6.03
2019-04-04T08:30:37.671Z,5.97
2019-04-04T08:33:08.644Z,6.77
2019-04-04T08:35:39.797Z,4.60
2019-04-04T08:38:11.138Z,5.03
2019-04-04T08:40:42.148Z,4.87
2019-04-04T08:43:13.130Z,5.40
2019-04-04T08:45:44.257Z,3.08
2019-04-04T08:48:16.508Z,2.53
2019-04-04T08:50:47.742Z,2.97
2019-04-04T08:53:18.869Z,3.90
2019-04-04T08:55:49.946Z,5.10
2019-04-04T08:58:20.966Z,6.75
2019-04-04T09:00:52.105Z,3.60
2019-04-04T09:03:23.205Z,4.90
2019-04-04T09:05:54.194Z,3.92
2019-04-04T09:08:25.313Z,5.03
2019-04-04T09:10:56.313Z,4.45
2019-04-04T09:13:27.324Z,3.73
2019-04-04T09:15:58.361Z,2.75
2019-04-04T09:18:29.341Z,3.67
2019-04-04T09:21:00.414Z,3.70
2019-04-04T09:23:31.571Z,3.67
2019-04-04T09:26:05.751Z,4.53
2019-04-04T09:28:37.249Z,3.47
2019-04-04T09:31:08.368Z,6.77
2019-04-04T09:33:39.405Z,3.83
2019-04-04T09:36:10.664Z,4.47
2019-04-04T09:38:41.653Z,2.58
2019-04-04T09:41:12.713Z,1.22
2019-04-04T09:43:44.023Z,3.08
2019-04-04T09:46:15.430Z,1.23
2019-04-04T09:48:46.868Z,2.15
2019-04-04T09:51:18.262Z,1.90
2019-04-04T09:53:53.400Z,1.95
2019-04-04T09:56:22.166Z,1.57
2019-04-04T09:58:55.031Z,2.50
2019-04-04T10:01:26.218Z,3.07
2019-04-04T10:03:57.703Z,2.90
2019-04-04T10:06:29.105Z,3.83
2019-04-04T10:09:00.137Z,5.43
2019-04-04T10:11:31.207Z,3.50
2019-04-04T10:14:04.113Z,2.03
2019-04-04T10:16:35.124Z,2.30
2019-04-04T10:19:06.371Z,2.23
2019-04-04T10:21:37.613Z,1.87
2019-04-04T10:24:08.681Z,2.10
2019-04-04T10:26:39.710Z,3.17
2019-04-04T10:29:10.820Z,3.07
2019-04-04T10:31:42.181Z,2.40
2019-04-04T10:34:13.229Z,3.27
2019-04-04T10:36:44.562Z,1.62
2019-04-04T10:39:28.323Z,0.77
2019-04-04T10:41:49.729Z,0.88
2019-04-04T10:44:20.717Z,0.70
2019-04-04T10:46:51.733Z,1.50
2019-04-04T10:49:22.707Z,1.13
2019-04-04T10:51:53.697Z,1.07
2019-04-04T10:54:24.677Z,1.27
2019-04-04T10:56:55.780Z,1.17
2019-04-04T10:59:26.760Z,0.70
2019-04-04T11:02:00.715Z,1.20
2019-04-04T11:04:30.518Z,0.87
2019-04-04T11:07:01.795Z,2.20
2019-04-04T11:09:41.947Z,1.63
2019-04-04T11:12:05.743Z,1.10
2019-04-04T11:14:38.033Z,1.50
2019-04-04T11:17:09.128Z,1.00
2019-04-04T11:19:43.188Z,0.80
2019-04-04T11:22:14.130Z,0.57
2019-04-04T11:24:45.173Z,1.25
2019-04-04T11:27:17.698Z,1.45
2019-04-04T11:29:48.729Z,1.60
2019-04-04T11:32:20.862Z,1.20
2019-04-04T11:34:53.437Z,1.40
2019-04-04T11:37:24.802Z,1.00
2019-04-04T11:39:55.781Z,1.00
2019-04-04T11:42:27.450Z,2.50
2019-04-04T11:44:58.752Z,1.00
2019-04-04T11:47:29.709Z,0.83
2019-04-04T11:50:00.773Z,0.70
2019-04-04T11:52:31.798Z,1.40
2019-04-04T11:55:03.445Z,0.60
2019-04-04T11:57:34.428Z,1.60
2019-04-04T12:00:07.161Z,0.50
2019-04-04T12:02:38.209Z,0.40
2019-04-04T12:05:09.567Z,0.70
2019-04-04T12:07:40.556Z,0.50
2019-04-04T12:10:12.198Z,1.20
2019-04-04T12:12:43.193Z,0.80
2019-04-04T12:15:15.436Z,0.97
2019-04-04T12:17:47.398Z,0.60
2019-04-04T12:20:18.545Z,0.23
2019-04-04T12:22:49.614Z,0.50
2019-04-04T12:25:20.971Z,0.20
2019-04-04T12:27:52.242Z,0.55
2019-04-04T12:30:23.249Z,0.30
2019-04-04T12:32:54.846Z,0.20
2019-04-04T12:35:26.836Z,0.43
2019-04-04T12:37:57.893Z,0.80
2019-04-04T12:40:29.207Z,0.60
2019-04-04T12:43:00.288Z,0.30
2019-04-04T12:45:31.404Z,0.30
2019-04-04T12:48:02.399Z,0.40
2019-04-04T12:50:33.480Z,0.50
2019-04-04T12:53:04.672Z,0.67
2019-04-04T12:55:35.870Z,0.57
2019-04-04T12:58:06.963Z,0.77
2019-04-04T13:00:38.081Z,0.77
2019-04-04T13:03:09.213Z,0.47
2019-04-04T13:05:40.846Z,0.30
2019-04-04T13:08:11.837Z,0.83
2019-04-04T13:10:43.374Z,0.57
2019-04-04T13:13:14.360Z,0.50
2019-04-04T13:15:45.471Z,0.20
2019-04-04T13:18:17.405Z,3.20
2019-04-04T13:20:48.494Z,0.53
2019-04-04T13:23:19.504Z,0.40
2019-04-04T13:25:50.493Z,0.62
2019-04-04T13:28:21.577Z,0.30
2019-04-04T13:30:52.668Z,1.30
2019-04-04T13:33:23.772Z,0.10
2019-04-04T13:35:54.796Z,0.67
2019-04-04T13:38:26.171Z,0.50
2019-04-04T13:40:57.154Z,0.78
2019-04-04T13:43:28.155Z,0.60
2019-04-04T13:45:59.132Z,0.20
2019-04-04T13:48:30.193Z,0.83
2019-04-04T13:51:01.522Z,0.37
2019-04-04T13:53:32.507Z,0.30
2019-04-04T13:56:03.644Z,0.40
2019-04-04T13:58:34.632Z,0.37
2019-04-04T14:01:05.822Z,0.30
2019-04-04T14:03:38.066Z,0.60
2019-04-04T14:06:09.333Z,0.50
2019-04-04T14:08:40.459Z,0.73
2019-04-04T14:11:11.505Z,0.60
2019-04-04T14:13:42.676Z,0.40
2019-04-04T14:16:13.766Z,0.43
2019-04-04T14:18:45.286Z,0.62
2019-04-04T14:21:17.931Z,0.50
2019-04-04T14:23:52.047Z,0.55
2019-04-04T14:26:21.821Z,0.50
2019-04-04T14:28:52.891Z,1.03
2019-04-04T14:31:23.983Z,0.80
2019-04-04T14:33:54.993Z,0.20
2019-04-04T14:36:25.976Z,0.30
2019-04-04T14:38:57.140Z,1.03
2019-04-04T14:41:28.360Z,0.53
2019-04-04T14:44:00.693Z,0.55
2019-04-04T14:46:31.919Z,0.33
2019-04-04T14:49:02.913Z,0.30
2019-04-04T14:51:33.967Z,0.10
2019-04-04T14:54:05.083Z,0.10
2019-04-04T14:56:36.107Z,0.30
2019-04-04T14:59:08.420Z,0.30
2019-04-04T15:01:39.503Z,0.10
2019-04-04T15:04:10.632Z,0.20
2019-04-04T15:06:41.679Z,0.40
2019-04-04T15:09:13.513Z,0.30
2019-04-04T15:11:44.964Z,0.10
2019-04-04T15:14:17.247Z,0.77
2019-04-04T15:16:48.208Z,0.20
2019-04-04T15:19:19.173Z,0.20
2019-04-04T15:21:50.339Z,0.72
2019-04-04T15:24:21.437Z,0.40
2019-04-04T15:26:52.407Z,0.40
2019-04-04T15:29:23.386Z,0.20
2019-04-04T15:31:54.365Z,0.33
2019-04-04T15:34:25.349Z,2.30
2019-04-04T15:36:56.667Z,0.30
2019-04-04T15:39:27.688Z,0.25
2019-04-04T15:41:58.791Z,0.33
2019-04-04T15:44:30.070Z,0.83
2019-04-04T15:47:01.285Z,0.43
2019-04-04T15:49:32.254Z,0.20
2019-04-04T15:52:03.330Z,0.30
2019-04-04T15:54:34.313Z,0.20
2019-04-04T15:57:05.574Z,0.30
2019-04-04T15:59:36.610Z,0.30
2019-04-04T16:02:08.749Z,0.20
2019-04-04T16:04:39.921Z,0.20
2019-04-04T16:07:11.529Z,0.27
2019-04-04T16:09:42.607Z,0.40
2019-04-04T16:12:13.681Z,0.63
2019-04-04T16:14:44.964Z,0.20
2019-04-04T16:17:16.211Z,0.30
2019-04-04T16:19:48.094Z,0.20
2019-04-04T16:22:19.402Z,0.47
2019-04-04T16:24:50.609Z,1.80
2019-04-04T16:27:21.616Z,4.90
2019-04-04T16:29:52.718Z,12.23
2019-04-04T16:32:23.706Z,13.27
2019-04-04T16:34:54.762Z,14.40
2019-04-04T16:37:25.869Z,6.97
2019-04-04T16:40:08.152Z,2.30
2019-04-04T16:42:29.566Z,1.27
2019-04-04T16:45:00.561Z,1.12
2019-04-04T16:47:31.666Z,0.30
2019-04-04T16:50:02.720Z,0.15
2019-04-04T16:52:33.726Z,0.30
2019-04-04T16:55:05.902Z,0.57
2019-04-04T16:57:37.216Z,0.30
2019-04-04T17:00:11.765Z,0.10
2019-04-04T17:02:42.753Z,0.10
2019-04-04T17:05:14.248Z,0.20
2019-04-04T17:07:45.485Z,0.10
2019-04-04T17:10:16.718Z,0.20
2019-04-04T17:12:48.103Z,0.30
2019-04-04T17:15:19.902Z,0.20
2019-04-04T17:17:51.098Z,0.20
2019-04-04T17:20:22.324Z,0.10
2019-04-04T17:22:53.563Z,0.10
2019-04-04T17:25:24.608Z,0.20
2019-04-04T17:27:55.564Z,0.30
2019-04-04T17:30:26.609Z,0.93
2019-04-04T17:32:58.116Z,0.88
2019-04-04T17:35:29.396Z,0.30
2019-04-04T17:38:00.406Z,0.60
2019-04-04T17:40:31.620Z,0.85
2019-04-04T17:43:02.563Z,0.62
2019-04-04T17:45:33.631Z,2.00
2019-04-04T17:48:05.123Z,2.17
2019-04-04T17:50:36.152Z,1.10
2019-04-04T17:53:07.739Z,0.20
2019-04-04T17:55:39.178Z,0.53
2019-04-04T17:58:10.634Z,1.60
2019-04-04T18:00:42.149Z,2.13
2019-04-04T18:03:13.193Z,1.02
2019-04-04T18:05:44.264Z,1.15
2019-04-04T18:08:15.590Z,1.20
2019-04-04T18:10:46.699Z,1.25
2019-04-04T18:13:18.197Z,1.27
2019-04-04T18:15:49.168Z,0.78
2019-04-04T18:18:20.143Z,1.00
2019-04-04T18:20:51.279Z,2.37
2019-04-04T18:23:22.738Z,0.57
2019-04-04T18:25:53.878Z,0.43
2019-04-04T18:28:24.846Z,0.60
2019-04-04T18:30:55.904Z,1.00
2019-04-04T18:33:27.011Z,0.57
2019-04-04T18:35:58.960Z,1.10
2019-04-04T18:38:30.309Z,0.80
2019-04-04T18:41:01.490Z,0.40
2019-04-04T18:43:32.480Z,1.47
2019-04-04T18:46:03.587Z,1.00
2019-04-04T18:48:34.588Z,0.73
2019-04-04T18:51:05.708Z,1.00
2019-04-04T18:53:36.892Z,1.43
2019-04-04T18:56:08.144Z,1.10
2019-04-04T18:58:39.369Z,1.33
2019-04-04T19:01:10.764Z,1.98
2019-04-04T19:03:43.158Z,0.70
2019-04-04T19:06:14.638Z,0.60
2019-04-04T19:08:45.607Z,1.02
2019-04-04T19:11:16.685Z,0.77
2019-04-04T19:13:48.561Z,1.16
2019-04-04T19:16:19.743Z,1.37
2019-04-04T19:18:51.919Z,1.15
2019-04-04T19:21:22.981Z,1.05
2019-04-04T19:23:53.983Z,1.30
2019-04-04T19:26:25.715Z,1.47
2019-04-04T19:28:56.952Z,2.37
2019-04-04T19:31:28.115Z,0.83
2019-04-04T19:34:00.287Z,1.15
2019-04-04T19:36:31.405Z,5.53
2019-04-04T19:39:03.078Z,3.47
2019-04-04T19:41:34.964Z,1.83
2019-04-04T19:44:06.043Z,2.75
2019-04-04T19:46:37.556Z,2.27
2019-04-04T19:49:08.571Z,1.57
2019-04-04T19:51:39.628Z,1.55
2019-04-04T19:54:10.677Z,1.10
2019-04-04T19:56:41.748Z,1.67
2019-04-04T19:59:12.837Z,0.97
2019-04-04T20:01:44.191Z,0.62
2019-04-04T20:04:15.180Z,1.30
2019-04-04T20:06:46.144Z,1.03
2019-04-04T20:09:17.192Z,0.53
2019-04-04T20:11:48.900Z,1.02
2019-04-04T20:14:19.886Z,1.13
2019-04-04T20:16:51.171Z,0.80
2019-04-04T20:19:22.899Z,0.93
2019-04-04T20:21:56.419Z,0.97
2019-04-04T20:24:26.752Z,2.50
2019-04-04T20:26:58.810Z,1.20
2019-04-04T20:29:29.790Z,1.63
2019-04-04T20:32:00.800Z,0.77
2019-04-04T20:34:31.741Z,1.27
2019-04-04T20:37:02.813Z,2.53
2019-04-04T20:39:33.789Z,1.33
2019-04-04T20:42:05.170Z,1.97
2019-04-04T20:44:36.199Z,0.90
2019-04-04T20:47:07.511Z,1.00
2019-04-04T20:49:39.181Z,1.30
2019-04-04T20:52:11.300Z,1.03
2019-04-04T20:54:43.304Z,1.97
2019-04-04T20:57:15.507Z,1.07
2019-04-04T20:59:48.768Z,1.20
2019-04-04T21:02:19.907Z,0.80
2019-04-04T21:04:50.861Z,2.77
2019-04-04T21:07:21.845Z,2.17
2019-04-04T21:09:53.088Z,2.08
2019-04-04T21:12:24.069Z,3.22
2019-04-04T21:14:55.057Z,1.80
2019-04-04T21:17:26.117Z,2.13
2019-04-04T21:19:57.256Z,2.60
2019-04-04T21:22:28.390Z,2.27
2019-04-04T21:24:59.512Z,1.87
2019-04-04T21:27:30.536Z,2.03
2019-04-04T21:30:02.075Z,2.00
2019-04-04T21:32:33.188Z,3.40
2019-04-04T21:35:04.213Z,1.82
2019-04-04T21:37:35.176Z,1.60
2019-04-04T21:40:06.944Z,2.77
2019-04-04T21:42:39.862Z,2.77
2019-04-04T21:45:15.061Z,3.73
2019-04-04T21:47:44.713Z,2.60
2019-04-04T21:50:15.969Z,3.07
2019-04-04T21:52:46.994Z,4.17
2019-04-04T21:55:19.014Z,3.85
2019-04-04T21:57:50.230Z,3.02
2019-04-04T22:00:23.234Z,3.03
2019-04-04T22:02:56.175Z,4.08
2019-04-04T22:05:27.469Z,5.47
2019-04-04T22:07:59.067Z,2.95
2019-04-04T22:10:30.179Z,1.87
2019-04-04T22:13:01.268Z,2.52
2019-04-04T22:15:32.232Z,3.13
2019-04-04T22:18:03.318Z,3.97
2019-04-04T22:20:34.398Z,3.83
2019-04-04T22:23:05.846Z,2.20
2019-04-04T22:25:38.149Z,5.00
2019-04-04T22:28:09.128Z,3.20
2019-04-04T22:30:40.347Z,2.73
2019-04-04T22:33:11.320Z,4.70
2019-04-04T22:35:42.410Z,3.03
2019-04-04T22:38:13.689Z,3.37
2019-04-04T22:40:44.696Z,2.43
2019-04-04T22:43:15.703Z,4.03
2019-04-04T22:45:46.737Z,3.27
2019-04-04T22:48:18.932Z,2.77
2019-04-04T22:50:50.310Z,3.73
2019-04-04T22:53:21.282Z,3.57
2019-04-04T22:55:52.280Z,2.58
2019-04-04T22:58:28.569Z,5.20
2019-04-04T23:00:57.015Z,2.00
2019-04-04T23:03:29.452Z,2.70
2019-04-04T23:06:00.768Z,2.50
2019-04-04T23:08:32.028Z,4.15
2019-04-04T23:11:03.228Z,3.05
2019-04-04T23:13:34.189Z,3.40
2019-04-04T23:16:05.244Z,3.20
2019-04-04T23:18:36.621Z,3.50
2019-04-04T23:21:07.709Z,3.63
2019-04-04T23:23:39.648Z,3.90
2019-04-04T23:26:10.711Z,4.50
2019-04-04T23:28:41.769Z,3.47
2019-04-04T23:31:12.748Z,2.77
2019-04-04T23:33:44.213Z,2.00
2019-04-04T23:36:15.170Z,3.53
2019-04-04T23:38:46.199Z,4.65
2019-04-04T23:41:17.483Z,2.90
2019-04-04T23:43:49.216Z,1.32
2019-04-04T23:46:20.595Z,3.27
2019-04-04T23:48:51.602Z,2.20
2019-04-04T23:51:23.113Z,3.77
2019-04-04T23:53:54.187Z,4.85
2019-04-04T23:56:25.253Z,4.03
2019-04-04T23:58:56.284Z,5.13
